Time;durP1;ratioP1;P1;durP2;ratioP2;P2;SDS_P1;SDS_P2;PMS_P1;PMS_P2;Temp;Humidity;BMP_temperature;BMP_pressure;BME280_temperature;BME280_humidity;BME280_pressure;Samples;Min_cycle;Max_cycle;Signal;HPM_P1;HPM_P2
2023/06/23 00:01:42;;;;;;;10.25;7.05;;;;;;;23.04;100.00;99309.22;5069174;28;20288;-73
2023/06/23 00:04:09;;;;;;;15.73;7.53;;;;;;;23.00;100.00;99300.91;5069343;28;20202;-73
2023/06/23 00:06:36;;;;;;;13.75;7.95;;;;;;;22.99;100.00;99309.75;5069105;28;20249;-73
2023/06/23 00:09:13;;;;;;;10.88;7.03;;;;;;;23.00;100.00;99319.19;5069153;28;20616;-73
2023/06/23 00:11:40;;;;;;;17.33;7.57;;;;;;;22.98;100.00;99315.13;5072501;28;20229;-73
2023/06/23 00:14:08;;;;;;;14.27;7.47;;;;;;;22.95;100.00;99315.50;5072935;28;20203;-71
2023/06/23 00:16:36;;;;;;;11.45;7.03;;;;;;;22.92;100.00;99321.06;5072278;28;20219;-71
2023/06/23 00:19:04;;;;;;;13.18;7.25;;;;;;;22.91;100.00;99314.25;5072942;28;20211;-71
2023/06/23 00:21:30;;;;;;;11.30;7.35;;;;;;;22.90;100.00;99310.03;5072391;28;20292;-71
2023/06/23 00:23:57;;;;;;;12.00;6.80;;;;;;;22.89;100.00;99308.41;5072608;28;20202;-71
2023/06/23 00:26:24;;;;;;;12.77;7.10;;;;;;;22.82;100.00;99314.34;5072411;28;20249;-73
2023/06/23 00:28:51;;;;;;;14.93;7.57;;;;;;;22.78;100.00;99313.13;5072717;28;20280;-71
2023/06/23 00:31:20;;;;;;;11.00;7.03;;;;;;;22.75;100.00;99313.50;5072066;28;20254;-73
2023/06/23 00:33:47;;;;;;;11.60;7.20;;;;;;;22.72;100.00;99308.66;5072512;28;20203;-71
2023/06/23 00:36:14;;;;;;;11.65;7.22;;;;;;;22.72;100.00;99303.44;5072329;28;20227;-71
2023/06/23 00:38:41;;;;;;;10.82;7.55;;;;;;;22.61;100.00;99306.50;5072340;28;20196;-73
2023/06/23 00:41:08;;;;;;;12.25;7.60;;;;;;;22.56;100.00;99309.66;5072360;28;20639;-73
2023/06/23 00:43:34;;;;;;;12.05;7.15;;;;;;;22.49;100.00;99308.78;5072061;28;20199;-71
2023/06/23 00:46:08;;;;;;;11.63;7.55;;;;;;;22.43;100.00;99308.69;5072248;28;20223;-71
2023/06/23 00:48:38;;;;;;;11.80;7.00;;;;;;;22.36;100.00;99304.19;5072185;28;20643;-71
2023/06/23 00:51:05;;;;;;;13.13;7.57;;;;;;;22.26;100.00;99302.88;5071878;28;20226;-73
2023/06/23 00:53:31;;;;;;;12.25;7.35;;;;;;;22.19;100.00;99300.16;5072070;28;20213;-71
2023/06/23 00:55:59;;;;;;;12.20;7.22;;;;;;;22.15;100.00;99304.91;5071716;28;20710;-71
2023/06/23 00:58:27;;;;;;;11.98;7.97;;;;;;;22.07;100.00;99304.19;5071836;28;20229;-71
2023/06/23 01:00:56;;;;;;;12.02;7.50;;;;;;;22.04;100.00;99305.34;5071743;28;20226;-73
2023/06/23 01:03:23;;;;;;;14.05;7.57;;;;;;;21.97;100.00;99314.06;5072216;28;20689;-72
2023/06/23 01:05:53;;;;;;;13.70;8.10;;;;;;;22.03;100.00;99313.34;5071555;28;20222;-71
2023/06/23 01:08:28;;;;;;;13.77;7.25;;;;;;;22.04;100.00;99318.38;5071903;28;20195;-71
2023/06/23 01:11:01;;;;;;;11.52;6.97;;;;;;;22.03;100.00;99313.34;5071516;28;20209;-73
2023/06/23 01:13:35;;;;;;;12.20;7.75;;;;;;;22.08;100.00;99316.25;5071772;28;20199;-73
2023/06/23 01:16:08;;;;;;;12.20;7.13;;;;;;;22.14;100.00;99307.72;5071224;28;20300;-71
2023/06/23 01:18:44;;;;;;;11.98;7.47;;;;;;;22.19;100.00;99307.97;5071474;28;20203;-72
2023/06/23 01:21:16;;;;;;;13.30;7.72;;;;;;;22.21;100.00;99310.41;5070753;28;20569;-73
2023/06/23 01:24:03;;;;;;;13.75;7.13;;;;;;;22.19;100.00;99315.78;5071375;28;20592;-73
2023/06/23 01:26:49;;;;;;;11.52;7.45;;;;;;;22.19;100.00;99317.59;5069628;28;20215;-71
2023/06/23 01:29:21;;;;;;;15.05;7.38;;;;;;;22.15;100.00;99304.09;5069966;28;20231;-73
2023/06/23 01:31:54;;;;;;;11.88;7.03;;;;;;;22.16;100.00;99310.91;5069741;28;20222;-73
2023/06/23 01:34:25;;;;;;;13.70;7.47;;;;;;;22.00;100.00;99298.09;5070468;28;20692;-71
2023/06/23 01:36:57;;;;;;;15.00;7.82;;;;;;;21.91;100.00;99311.19;5070993;28;20738;-73
2023/06/23 01:39:26;;;;;;;14.95;8.25;;;;;;;21.82;100.00;99316.66;5071062;28;20203;-73
2023/06/23 01:42:00;;;;;;;17.10;8.35;;;;;;;21.86;100.00;99313.50;5069905;28;20275;-71
2023/06/23 01:44:31;;;;;;;14.05;7.85;;;;;;;21.97;100.00;99314.06;5071097;28;20202;-72
2023/06/23 01:47:02;;;;;;;11.95;7.53;;;;;;;22.01;100.00;99304.91;5070946;28;20219;-72
2023/06/23 01:49:36;;;;;;;15.30;7.93;;;;;;;21.98;100.00;99302.66;5070006;28;20238;-73
2023/06/23 01:52:06;;;;;;;13.43;7.63;;;;;;;21.85;100.00;99306.69;5070725;28;20223;-71
2023/06/23 01:54:34;;;;;;;12.35;7.82;;;;;;;21.89;100.00;99302.75;5071127;28;20207;-71
2023/06/23 01:57:02;;;;;;;13.10;8.07;;;;;;;21.81;100.00;99302.81;5069690;28;20244;-73
2023/06/23 01:59:33;;;;;;;13.10;7.78;;;;;;;21.77;100.00;99309.38;5070337;28;20218;-73
2023/06/23 02:02:01;;;;;;;17.13;8.25;;;;;;;21.78;100.00;99310.19;5070888;28;20229;-73
2023/06/23 02:04:30;;;;;;;12.88;7.38;;;;;;;21.80;100.00;99313.44;5070168;28;20199;-73
2023/06/23 02:06:59;;;;;;;13.40;7.97;;;;;;;21.77;100.00;99311.19;5069688;28;20218;-71
2023/06/23 02:09:29;;;;;;;12.15;6.75;;;;;;;21.76;100.00;99315.59;5071043;28;20587;-71
2023/06/23 02:11:58;;;;;;;11.48;7.38;;;;;;;21.79;100.00;99319.63;5070330;28;20237;-73
2023/06/23 02:14:27;;;;;;;14.65;8.00;;;;;;;21.88;100.00;99321.97;5070006;28;20261;-73
2023/06/23 02:16:57;;;;;;;13.55;7.78;;;;;;;21.90;100.00;99330.41;5070491;28;20612;-73
2023/06/23 02:19:26;;;;;;;10.82;6.47;;;;;;;21.92;100.00;99328.41;5070822;28;20202;-71
2023/06/23 02:21:54;;;;;;;12.60;7.38;;;;;;;21.88;100.00;99332.38;5069057;28;20222;-73
2023/06/23 02:24:24;;;;;;;14.05;7.68;;;;;;;21.86;100.00;99323.94;5070244;28;20662;-71
2023/06/23 02:26:52;;;;;;;13.50;7.30;;;;;;;21.79;100.00;99317.84;5070162;28;20609;-72
2023/06/23 02:29:21;;;;;;;12.10;7.32;;;;;;;21.64;100.00;99324.78;5069486;28;20286;-71
2023/06/23 02:31:48;;;;;;;15.45;8.07;;;;;;;21.50;100.00;99325.56;5069575;28;20223;-71
2023/06/23 02:34:16;;;;;;;14.50;7.43;;;;;;;21.39;100.00;99326.78;5070059;28;20203;-71
2023/06/23 02:36:47;;;;;;;15.05;8.48;;;;;;;21.42;100.00;99324.66;5069367;28;20221;-73
2023/06/23 02:39:19;;;;;;;14.02;7.38;;;;;;;21.47;100.00;99319.72;5069350;28;20206;-71
2023/06/23 02:41:48;;;;;;;13.50;7.70;;;;;;;21.48;100.00;99315.34;5070080;28;20279;-71
2023/06/23 02:44:19;;;;;;;13.55;8.25;;;;;;;21.37;100.00;99326.94;5069817;28;20210;-71
2023/06/23 02:46:53;;;;;;;14.88;8.18;;;;;;;21.30;100.00;99331.22;5068810;28;20226;-73
2023/06/23 02:49:26;;;;;;;12.40;7.38;;;;;;;21.30;100.00;99328.63;5069896;28;20287;-72
2023/06/23 02:51:58;;;;;;;15.30;8.15;;;;;;;21.29;100.00;99320.97;5069676;28;20705;-73
2023/06/23 02:54:31;;;;;;;12.93;7.53;;;;;;;21.36;100.00;99316.72;5069131;28;20282;-71
2023/06/23 02:56:59;;;;;;;13.13;7.80;;;;;;;21.43;100.00;99317.66;5069914;28;20250;-73
2023/06/23 02:59:28;;;;;;;13.50;8.32;;;;;;;21.48;100.00;99308.34;5069970;28;20284;-71
2023/06/23 03:01:58;;;;;;;12.13;7.15;;;;;;;21.55;100.00;99315.44;5068854;28;20222;-73
2023/06/23 03:04:27;;;;;;;12.80;7.93;;;;;;;21.56;100.00;99317.06;5069670;28;20213;-72
2023/06/23 03:06:54;;;;;;;12.85;7.85;;;;;;;21.58;100.00;99317.69;5069834;28;20301;-71
2023/06/23 03:09:21;;;;;;;15.13;8.32;;;;;;;21.53;100.00;99312.22;5069272;28;20215;-72
2023/06/23 03:11:48;;;;;;;12.63;7.65;;;;;;;21.50;100.00;99318.59;5069081;28;20242;-71
2023/06/23 03:14:15;;;;;;;13.88;8.07;;;;;;;21.56;100.00;99317.06;5069754;28;20203;-71
2023/06/23 03:16:46;;;;;;;12.60;7.82;;;;;;;21.64;100.00;99314.38;5069141;28;20238;-71
2023/06/23 03:19:25;;;;;;;13.02;7.93;;;;;;;21.71;100.00;99315.28;5069180;28;20199;-71
2023/06/23 03:22:04;;;;;;;14.15;8.15;;;;;;;21.75;100.00;99316.53;5069453;28;20221;-71
2023/06/23 03:24:33;;;;;;;15.98;8.05;;;;;;;21.78;100.00;99318.78;5069451;28;20228;-71
2023/06/23 03:27:03;;;;;;;15.23;8.50;;;;;;;21.80;100.00;99306.41;5068356;28;20218;-72
2023/06/23 03:29:32;;;;;;;12.38;7.85;;;;;;;21.85;100.00;99311.91;5069422;28;20195;-71
2023/06/23 03:32:03;;;;;;;16.50;8.38;;;;;;;21.77;100.00;99309.38;5069274;28;20218;-71
2023/06/23 03:34:39;;;;;;;13.07;7.80;;;;;;;21.66;100.00;99308.00;5068752;28;20195;-71
2023/06/23 03:37:10;;;;;;;12.90;8.35;;;;;;;21.65;100.00;99310.81;5069136;28;20301;-72
2023/06/23 03:39:40;;;;;;;13.90;8.00;;;;;;;21.60;100.00;99318.31;5069519;28;20203;-71
2023/06/23 03:42:08;;;;;;;16.45;8.30;;;;;;;21.61;100.00;99309.53;5068444;28;20364;-71
2023/06/23 03:44:40;;;;;;;14.02;8.55;;;;;;;21.57;100.00;99318.69;5069053;28;20293;-71
2023/06/23 03:47:14;;;;;;;14.13;8.02;;;;;;;21.56;100.00;99311.88;5073371;28;20225;-71
2023/06/23 03:49:45;;;;;;;13.07;8.27;;;;;;;21.62;100.00;99316.38;5072925;28;20771;-73
2023/06/23 03:52:16;;;;;;;16.77;8.27;;;;;;;21.64;100.00;99317.81;5072552;28;20227;-71
2023/06/23 03:54:47;;;;;;;14.15;8.52;;;;;;;21.73;100.00;99321.16;5073616;28;20799;-71
2023/06/23 03:57:18;;;;;;;17.20;8.50;;;;;;;21.83;100.00;99319.09;5072870;28;20225;-71
2023/06/23 03:59:47;;;;;;;14.82;8.63;;;;;;;21.92;100.00;99325.81;5072582;28;20195;-73
2023/06/23 04:02:17;;;;;;;11.82;8.13;;;;;;;21.98;100.00;99320.88;5073108;28;20226;-72
2023/06/23 04:04:45;;;;;;;11.98;7.50;;;;;;;22.08;100.00;99321.44;5073185;28;20652;-73
2023/06/23 04:07:15;;;;;;;12.43;7.53;;;;;;;22.17;100.00;99322.16;5071229;28;20222;-73
2023/06/23 04:09:46;;;;;;;12.95;7.72;;;;;;;22.26;100.00;99323.72;5071116;28;20199;-73
2023/06/23 04:12:15;;;;;;;15.93;8.95;;;;;;;22.34;100.00;99318.38;5071217;28;20223;-72
2023/06/23 04:14:45;;;;;;;14.77;8.52;;;;;;;22.42;100.00;99325.31;5072212;28;20286;-73
2023/06/23 04:17:13;;;;;;;16.02;8.10;;;;;;;22.46;100.00;99319.56;5072575;28;20230;-71
2023/06/23 04:19:43;;;;;;;14.23;7.40;;;;;;;22.45;100.00;99322.34;5073161;28;20651;-72
2023/06/23 04:22:14;;;;;;;13.63;8.43;;;;;;;22.44;100.00;99325.94;5071641;28;20816;-71
2023/06/23 04:24:43;;;;;;;14.48;8.48;;;;;;;22.45;100.00;99327.56;5072616;28;20638;-73
2023/06/23 04:27:14;;;;;;;15.02;8.02;;;;;;;22.60;100.00;99330.94;5072404;28;20722;-71
2023/06/23 04:29:45;;;;;;;13.68;8.00;;;;;;;22.70;100.00;99326.25;5072150;28;20206;-72
2023/06/23 04:32:13;;;;;;;12.65;8.20;;;;;;;22.75;100.00;99329.13;5071689;28;20284;-69
2023/06/23 04:34:41;;;;;;;11.63;7.38;;;;;;;22.95;100.00;99320.72;5072568;28;20629;-71
2023/06/23 04:37:13;;;;;;;12.30;7.78;;;;;;;23.08;100.00;99323.47;5071977;28;20309;-72
2023/06/23 04:39:46;;;;;;;13.43;8.32;;;;;;;23.26;100.00;99331.66;5071549;28;20720;-72
2023/06/23 04:42:16;;;;;;;14.38;8.27;;;;;;;23.41;100.00;99331.59;5072381;28;20219;-72
2023/06/23 04:44:54;;;;;;;11.95;7.93;;;;;;;23.53;100.00;99326.66;5072461;28;20199;-72
2023/06/23 04:47:23;;;;;;;12.25;7.85;;;;;;;23.69;100.00;99336.03;5071206;28;20218;-72
2023/06/23 04:49:57;;;;;;;12.70;7.85;;;;;;;23.78;100.00;99334.94;5072312;28;20889;-72
2023/06/23 04:52:26;;;;;;;13.63;7.95;;;;;;;23.90;100.00;99343.03;5072079;28;20244;-72
2023/06/23 04:54:59;;;;;;;13.23;7.93;;;;;;;23.93;100.00;99338.25;5071362;28;20643;-72
2023/06/23 04:57:30;;;;;;;14.80;8.50;;;;;;;24.07;100.00;99338.34;5071768;28;20306;-71
2023/06/23 05:00:01;;;;;;;12.57;8.07;;;;;;;24.22;100.00;99344.25;5071940;28;20238;-72
2023/06/23 05:02:31;;;;;;;13.48;7.70;;;;;;;24.38;100.00;99345.75;5071256;28;20225;-73
2023/06/23 05:05:00;;;;;;;11.55;7.47;;;;;;;24.52;100.00;99351.84;5071893;28;20203;-71
2023/06/23 05:07:29;;;;;;;10.48;6.82;;;;;;;24.67;100.00;99359.56;5071808;28;20222;-72
2023/06/23 05:09:59;;;;;;;13.02;8.32;;;;;;;24.81;100.00;99355.97;5071470;28;20214;-72
2023/06/23 05:12:29;;;;;;;11.85;7.65;;;;;;;24.90;100.00;99354.00;5071210;28;20219;-72
2023/06/23 05:14:57;;;;;;;14.68;7.78;;;;;;;25.06;100.00;99359.69;5071942;28;20199;-72
2023/06/23 05:17:27;;;;;;;13.23;7.95;;;;;;;25.26;100.00;99369.41;5071285;28;20219;-71
2023/06/23 05:19:56;;;;;;;10.05;7.28;;;;;;;25.40;100.00;99359.78;5070609;28;20203;-74
2023/06/23 05:22:26;;;;;;;11.48;7.85;;;;;;;25.52;100.00;99369.44;5071084;28;20222;-71
2023/06/23 05:24:59;;;;;;;11.98;7.15;;;;;;;25.58;100.00;99369.66;5071646;28;20210;-72
2023/06/23 05:27:29;;;;;;;12.43;7.78;;;;;;;25.72;100.00;99379.91;5070384;28;20253;-73
2023/06/23 05:29:58;;;;;;;12.45;7.20;;;;;;;25.74;100.00;99366.59;5071326;28;20256;-73
2023/06/23 05:32:30;;;;;;;14.15;7.68;;;;;;;25.84;100.00;99372.28;5071508;28;20218;-71
2023/06/23 05:35:02;;;;;;;12.93;7.30;;;;;;;26.07;100.00;99378.91;5071136;28;20202;-71
2023/06/23 05:37:31;;;;;;;10.98;7.28;;;;;;;26.20;100.00;99373.63;5070950;28;20225;-72
2023/06/23 05:40:01;;;;;;;11.95;7.88;;;;;;;26.28;100.00;99377.84;5071264;28;20651;-72
2023/06/23 05:42:32;;;;;;;12.02;7.57;;;;;;;26.48;100.00;99383.84;5071092;28;20217;-72
2023/06/23 05:44:59;;;;;;;10.57;7.50;;;;;;;26.59;99.37;99385.06;5071400;28;20199;-71
2023/06/23 05:47:32;;;;;;;11.23;7.70;;;;;;;26.75;98.98;99389.00;5070914;28;20241;-72
2023/06/23 05:50:02;;;;;;;12.80;7.55;;;;;;;26.75;100.00;99389.00;5070971;28;20195;-73
2023/06/23 05:52:32;;;;;;;11.55;7.40;;;;;;;26.77;97.47;99387.78;5070599;28;20265;-72
2023/06/23 05:55:02;;;;;;;11.98;7.80;;;;;;;26.94;98.13;99398.63;5071094;28;20210;-72
2023/06/23 05:57:34;;;;;;;11.68;7.82;;;;;;;27.22;98.71;99390.41;5070683;28;20223;-73
2023/06/23 06:00:09;;;;;;;10.52;7.20;;;;;;;27.40;95.96;99402.00;5070827;28;20203;-74
2023/06/23 06:02:39;;;;;;;14.77;7.28;;;;;;;27.36;91.94;99398.19;5070703;28;20258;-71
2023/06/23 06:05:11;;;;;;;9.75;7.53;;;;;;;27.38;92.96;99398.81;5070741;28;20700;-72
2023/06/23 06:07:39;;;;;;;13.48;7.28;;;;;;;27.43;91.59;99404.19;5070164;28;20229;-72
2023/06/23 06:10:09;;;;;;;11.60;7.65;;;;;;;27.53;91.68;99392.22;5070721;28;20210;-71
2023/06/23 06:12:39;;;;;;;9.75;7.20;;;;;;;27.64;92.40;99398.59;5070530;28;20230;-72
2023/06/23 06:15:08;;;;;;;14.32;7.93;;;;;;;27.82;95.03;99399.69;5070900;28;20205;-71
2023/06/23 06:17:38;;;;;;;12.88;8.05;;;;;;;27.94;92.59;99397.97;5070113;28;20609;-72
2023/06/23 06:20:07;;;;;;;12.30;7.82;;;;;;;27.87;90.96;99400.66;5070733;28;20203;-72
2023/06/23 06:22:38;;;;;;;13.85;8.32;;;;;;;27.98;94.54;99399.13;5069917;28;20223;-72
2023/06/23 06:25:07;;;;;;;14.18;8.32;;;;;;;28.13;93.61;99402.25;5070499;28;20211;-72
2023/06/23 06:27:35;;;;;;;12.07;8.05;;;;;;;28.36;92.94;99391.09;5069441;28;20226;-72
2023/06/23 06:30:05;;;;;;;12.88;8.55;;;;;;;28.58;91.50;99393.28;5069893;28;20687;-71
2023/06/23 06:32:37;;;;;;;13.02;8.52;;;;;;;28.71;90.39;99403.66;5069610;28;20268;-71
2023/06/23 06:35:06;;;;;;;11.82;8.15;;;;;;;28.87;90.04;99403.03;5069073;28;20206;-72
2023/06/23 06:37:36;;;;;;;13.48;8.68;;;;;;;29.17;95.50;99404.09;5069771;28;20219;-71
2023/06/23 06:40:06;;;;;;;12.38;8.52;;;;;;;29.16;86.78;99405.13;5070278;28;20210;-71
2023/06/23 06:42:33;;;;;;;12.65;8.00;;;;;;;29.26;88.28;99397.47;5069963;28;20226;-71
2023/06/23 06:45:00;;;;;;;11.52;7.75;;;;;;;29.24;88.51;99407.44;5070344;28;20206;-71
2023/06/23 06:47:30;;;;;;;15.73;8.45;;;;;;;29.33;87.75;99395.56;5069808;28;20222;-71
2023/06/23 06:49:59;;;;;;;10.57;7.57;;;;;;;29.48;86.29;99403.81;5070526;28;20746;-72
2023/06/23 06:52:27;;;;;;;10.48;6.90;;;;;;;29.50;85.54;99391.25;5069761;28;20614;-72
2023/06/23 06:54:54;;;;;;;10.77;7.80;;;;;;;29.74;86.59;99392.09;5069902;28;20674;-72
2023/06/23 06:57:22;;;;;;;10.13;7.55;;;;;;;29.98;82.99;99387.59;5069566;28;20714;-71
2023/06/23 06:59:49;;;;;;;11.50;7.68;;;;;;;30.10;81.84;99392.06;5070358;28;20203;-72
2023/06/23 07:02:17;;;;;;;10.00;7.28;;;;;;;30.21;80.68;99380.75;5069776;28;20218;-72
2023/06/23 07:04:45;;;;;;;10.32;7.82;;;;;;;30.02;79.23;99382.69;5070088;28;20256;-71
2023/06/23 07:07:15;;;;;;;10.82;7.45;;;;;;;29.80;81.73;99369.28;5069636;28;20615;-71
2023/06/23 07:09:42;;;;;;;10.48;7.30;;;;;;;29.77;81.04;99378.44;5069937;28;20236;-71
2023/06/23 07:12:10;;;;;;;11.52;7.00;;;;;;;29.87;73.86;99379.69;5069313;28;20332;-72
2023/06/23 07:14:36;;;;;;;10.55;7.05;;;;;;;30.19;78.62;99374.84;5069856;28;20689;-73
2023/06/23 07:17:04;;;;;;;9.90;6.95;;;;;;;30.60;78.89;99373.06;5069431;28;20230;-72
2023/06/23 07:19:31;;;;;;;11.52;7.75;;;;;;;30.74;76.97;99374.38;5069808;28;20263;-71
2023/06/23 07:21:59;;;;;;;10.13;7.85;;;;;;;30.81;72.82;99380.38;5073879;28;20640;-72
2023/06/23 07:24:26;;;;;;;9.77;7.50;;;;;;;31.19;74.12;99375.50;5073786;28;20241;-73
2023/06/23 07:26:52;;;;;;;10.63;7.50;;;;;;;31.29;78.25;99375.66;5073680;28;20227;-72
2023/06/23 07:29:19;;;;;;;10.98;7.43;;;;;;;31.24;71.14;99379.03;5073754;28;20199;-71
2023/06/23 07:31:46;;;;;;;10.68;7.75;;;;;;;31.62;76.18;99382.81;5073257;28;20234;-71
2023/06/23 07:34:13;;;;;;;13.77;7.65;;;;;;;31.93;79.41;99377.97;5074016;28;20198;-71
2023/06/23 07:36:40;;;;;;;11.80;7.10;;;;;;;32.06;73.88;99380.28;5073326;28;20211;-72
2023/06/23 07:39:10;;;;;;;10.55;8.00;;;;;;;32.05;72.14;99376.03;5073244;28;20198;-71
2023/06/23 07:41:37;;;;;;;10.35;7.28;;;;;;;32.21;73.20;99383.13;5073744;28;20239;-72
2023/06/23 07:44:04;;;;;;;10.68;7.75;;;;;;;32.29;68.33;99381.09;5073592;28;20580;-71
2023/06/23 07:46:32;;;;;;;9.55;7.40;;;;;;;32.37;65.92;99385.94;5073063;28;20225;-72
2023/06/23 07:48:59;;;;;;;8.82;6.90;;;;;;;32.61;73.33;99375.94;5073372;28;20486;-71
2023/06/23 07:51:26;;;;;;;9.13;7.32;;;;;;;32.84;67.54;99374.84;5073022;28;20234;-72
2023/06/23 07:53:53;;;;;;;8.82;7.10;;;;;;;32.99;67.45;99372.38;5073256;28;20203;-71
2023/06/23 07:56:22;;;;;;;10.82;7.13;;;;;;;33.23;62.99;99377.34;5072829;28;20218;-71
2023/06/23 07:58:48;;;;;;;9.70;7.03;;;;;;;33.44;64.58;99373.81;5073122;28;20199;-72
2023/06/23 08:01:15;;;;;;;10.57;6.97;;;;;;;33.23;56.41;99372.84;5073391;28;20222;-72
2023/06/23 08:03:45;;;;;;;8.77;6.30;;;;;;;33.41;64.01;99371.66;5072978;28;20210;-72
2023/06/23 08:06:13;;;;;;;7.72;6.28;;;;;;;33.63;57.00;99371.59;5072789;28;20272;-71
2023/06/23 08:08:40;;;;;;;9.27;7.10;;;;;;;33.80;57.81;99366.09;5073282;28;20205;-71
2023/06/23 08:11:07;;;;;;;10.82;7.15;;;;;;;33.89;59.81;99369.91;5072658;28;20231;-71
2023/06/23 08:13:38;;;;;;;9.50;6.78;;;;;;;34.13;57.70;99370.31;5072774;28;20203;-72
2023/06/23 08:16:05;;;;;;;14.68;10.63;;;;;;;34.18;61.43;99365.03;5072707;28;20223;-75
2023/06/23 08:18:32;;;;;;;62.15;40.45;;;;;;;34.33;60.45;99360.84;5072510;28;20195;-71
2023/06/23 08:20:59;;;;;;;10.65;7.10;;;;;;;34.29;51.88;99370.34;5072755;28;20245;-70
2023/06/23 08:23:25;;;;;;;8.85;6.53;;;;;;;34.33;53.21;99366.94;5072644;28;20722;-71
2023/06/23 08:25:52;;;;;;;8.82;6.72;;;;;;;34.58;58.71;99363.56;5072467;28;20237;-73
2023/06/23 08:28:19;;;;;;;7.65;6.10;;;;;;;34.75;53.22;99362.56;5072411;28;20289;-74
2023/06/23 08:30:47;;;;;;;8.35;6.57;;;;;;;34.62;52.50;99367.31;5072356;28;20217;-72
2023/06/23 08:33:14;;;;;;;10.10;6.35;;;;;;;34.70;51.54;99368.63;5072626;28;20222;-72
2023/06/23 08:35:41;;;;;;;8.40;6.50;;;;;;;34.64;51.72;99359.06;5072841;28;20210;-73
2023/06/23 08:38:12;;;;;;;8.90;6.50;;;;;;;34.80;53.31;99354.59;5072551;28;20198;-73
2023/06/23 08:40:40;;;;;;;9.25;7.28;;;;;;;34.76;52.84;99359.63;5072301;28;20658;-73
2023/06/23 08:43:07;;;;;;;8.80;7.03;;;;;;;34.78;52.98;99360.16;5072335;28;20573;-72
2023/06/23 08:45:37;;;;;;;9.40;6.55;;;;;;;34.84;56.21;99356.44;5072435;28;20226;-73
2023/06/23 08:48:06;;;;;;;9.07;6.88;;;;;;;34.75;55.81;99350.06;5072191;28;20198;-73
2023/06/23 08:50:33;;;;;;;7.85;6.18;;;;;;;34.83;57.03;99349.53;5072293;28;20210;-71
2023/06/23 08:53:00;;;;;;;9.88;7.07;;;;;;;35.02;55.13;99354.34;5072082;28;20246;-74
2023/06/23 08:55:28;;;;;;;9.32;7.15;;;;;;;35.15;57.00;99359.16;5072221;28;20203;-74
2023/06/23 08:58:00;;;;;;;9.75;6.63;;;;;;;35.24;50.69;99352.25;5072321;28;20686;-73
2023/06/23 09:00:27;;;;;;;8.85;6.40;;;;;;;35.42;50.97;99358.09;5071692;28;20202;-71
2023/06/23 09:02:54;;;;;;;7.70;6.15;;;;;;;35.36;45.50;99354.63;5072282;28;20233;-71
2023/06/23 09:05:22;;;;;;;7.50;5.68;;;;;;;35.01;45.60;99347.44;5071885;28;20203;-71
2023/06/23 09:07:50;;;;;;;7.82;5.78;;;;;;;35.05;47.71;99351.19;5071218;28;20206;-72
2023/06/23 09:10:17;;;;;;;9.65;6.18;;;;;;;35.17;46.21;99346.41;5071080;28;20562;-73
2023/06/23 09:13:13;;;;;;;7.05;5.78;;;;;;;35.29;44.70;99349.59;5070689;28;20234;-71
2023/06/23 09:15:42;;;;;;;7.38;5.80;;;;;;;35.26;45.45;99352.78;5070662;28;20401;-72
2023/06/23 09:18:09;;;;;;;7.22;5.85;;;;;;;35.45;46.54;99347.69;5071236;28;20199;-71
2023/06/23 09:20:39;;;;;;;7.95;5.80;;;;;;;35.69;47.99;99347.94;5071416;28;20203;-73
2023/06/23 09:23:07;;;;;;;8.20;6.20;;;;;;;35.66;44.22;99342.38;5071473;28;20605;-71
2023/06/23 09:25:41;;;;;;;8.02;6.25;;;;;;;35.46;46.98;99349.31;5071396;28;20203;-72
2023/06/23 09:28:08;;;;;;;11.10;6.50;;;;;;;35.48;46.33;99346.38;5071613;28;20191;-72
2023/06/23 09:30:35;;;;;;;7.50;6.43;;;;;;;35.69;45.74;99350.59;5071496;28;20202;-71
2023/06/23 09:33:04;;;;;;;10.48;6.47;;;;;;;35.87;45.17;99348.41;5071433;28;20253;-73
2023/06/23 09:35:31;;;;;;;8.35;6.80;;;;;;;36.10;48.52;99342.53;5071699;28;20574;-73
2023/06/23 09:38:02;;;;;;;8.63;6.20;;;;;;;36.23;44.97;99341.94;5071394;28;20205;-72
2023/06/23 09:40:29;;;;;;;8.27;6.60;;;;;;;36.07;44.43;99337.72;5071615;28;20248;-73
2023/06/23 09:43:00;;;;;;;8.13;6.30;;;;;;;36.19;45.84;99338.22;5070413;28;20592;-72
2023/06/23 09:45:27;;;;;;;7.82;6.25;;;;;;;36.20;44.07;99337.16;5071496;28;20587;-71
2023/06/23 09:47:54;;;;;;;9.15;6.47;;;;;;;35.45;45.04;99341.59;5071255;28;20202;-71
2023/06/23 09:50:23;;;;;;;9.45;6.68;;;;;;;35.03;46.25;99329.38;5071030;28;20203;-71
2023/06/23 09:53:03;;;;;;;8.85;6.28;;;;;;;35.31;45.67;99326.16;5070911;28;20230;-73
2023/06/23 09:55:31;;;;;;;9.27;6.50;;;;;;;35.74;46.74;99329.31;5071094;28;20571;-71
2023/06/23 09:57:58;;;;;;;8.38;6.72;;;;;;;35.85;47.45;99324.75;5070924;28;20586;-73
2023/06/23 10:00:34;;;;;;;8.95;6.50;;;;;;;36.03;45.25;99324.16;5070858;28;20268;-71
2023/06/23 10:03:02;;;;;;;8.52;6.30;;;;;;;35.68;43.49;99333.06;5070828;28;20187;-72
2023/06/23 10:05:35;;;;;;;8.27;6.53;;;;;;;36.03;43.62;99320.69;5070885;28;20199;-74
2023/06/23 10:08:11;;;;;;;9.45;6.57;;;;;;;36.32;46.36;99323.50;5070791;28;20206;-72
2023/06/23 10:10:43;;;;;;;7.15;5.80;;;;;;;36.57;42.08;99314.59;5070923;28;20199;-73
2023/06/23 10:13:10;;;;;;;7.00;5.78;;;;;;;36.49;43.46;99315.94;5070565;28;20335;-72
2023/06/23 10:15:39;;;;;;;6.47;5.65;;;;;;;36.32;40.24;99317.41;5070512;28;20206;-74
2023/06/23 10:18:06;;;;;;;6.72;5.75;;;;;;;36.36;42.37;99307.78;5070618;28;20191;-73
2023/06/23 10:20:33;;;;;;;6.53;5.45;;;;;;;36.51;40.92;99305.03;5070896;28;20499;-73
2023/06/23 10:23:01;;;;;;;7.55;5.30;;;;;;;36.74;42.21;99308.09;5070369;28;20194;-72
2023/06/23 10:25:30;;;;;;;7.10;5.47;;;;;;;36.38;40.48;99316.28;5070161;28;20214;-73
2023/06/23 10:28:00;;;;;;;6.55;5.40;;;;;;;36.30;43.02;99315.00;5070800;28;20561;-72
2023/06/23 10:30:29;;;;;;;7.07;5.75;;;;;;;36.49;42.24;99296.50;5070263;28;20213;-73
2023/06/23 10:32:58;;;;;;;6.90;5.68;;;;;;;36.47;41.60;99298.66;5070296;28;20222;-73
2023/06/23 10:35:26;;;;;;;8.20;5.50;;;;;;;36.08;39.61;99312.72;5070138;28;20210;-72
2023/06/23 10:38:05;;;;;;;9.40;5.60;;;;;;;35.79;40.42;99300.03;5070429;28;20199;-73
2023/06/23 10:40:39;;;;;;;7.45;5.78;;;;;;;35.93;40.66;99300.25;5070065;28;20596;-73
2023/06/23 10:43:07;;;;;;;6.57;5.50;;;;;;;36.20;45.41;99293.75;5069957;28;20208;-73
2023/06/23 10:45:36;;;;;;;6.50;5.25;;;;;;;36.44;44.76;99288.56;5070051;28;20206;-72
2023/06/23 10:48:02;;;;;;;6.93;5.40;;;;;;;36.44;41.75;99286.69;5070157;28;20687;-73
2023/06/23 10:50:30;;;;;;;8.00;5.35;;;;;;;36.07;40.68;99289.81;5070450;28;20612;-73
2023/06/23 10:53:08;;;;;;;7.40;5.03;;;;;;;35.90;40.66;99284.00;5069951;28;20296;-73
2023/06/23 10:55:40;;;;;;;9.73;5.90;;;;;;;35.50;41.44;99283.06;5069933;28;20289;-73
2023/06/23 10:58:14;;;;;;;7.05;5.57;;;;;;;35.35;41.98;99283.91;5069992;28;20691;-73
2023/06/23 11:00:46;;;;;;;7.80;5.78;;;;;;;35.38;42.58;99286.03;5070283;28;20194;-72
2023/06/23 11:03:27;;;;;;;8.40;5.72;;;;;;;35.28;41.22;99278.06;5069908;28;20194;-73
2023/06/23 11:05:55;;;;;;;6.45;5.05;;;;;;;35.14;41.75;99277.81;5070030;28;20218;-73
2023/06/23 11:08:31;;;;;;;6.88;5.40;;;;;;;35.42;45.87;99271.13;5069701;28;20206;-73
2023/06/23 11:11:03;;;;;;;8.85;5.70;;;;;;;35.66;44.31;99276.66;5070025;28;20214;-71
2023/06/23 11:13:41;;;;;;;7.55;5.72;;;;;;;35.79;44.67;99262.78;5069564;28;20230;-73
2023/06/23 11:16:12;;;;;;;8.98;5.55;;;;;;;35.88;44.15;99273.66;5069814;28;20654;-72
2023/06/23 11:18:49;;;;;;;6.68;5.70;;;;;;;35.63;43.59;99273.75;5069778;28;20195;-73
2023/06/23 11:21:17;;;;;;;9.32;5.47;;;;;;;35.85;44.12;99262.78;5069802;28;20678;-71
2023/06/23 11:24:12;;;;;;;7.15;5.57;;;;;;;36.14;44.61;99258.38;5069475;28;20683;-73
2023/06/23 11:26:45;;;;;;;7.38;5.50;;;;;;;35.54;41.51;99260.19;5070112;28;20218;-73
2023/06/23 11:29:13;;;;;;;7.13;5.57;;;;;;;35.71;43.04;99262.56;5069870;28;20594;-71
2023/06/23 11:32:05;;;;;;;7.47;5.55;;;;;;;35.37;42.27;99250.69;5069714;28;20323;-73
2023/06/23 11:34:50;;;;;;;6.82;5.40;;;;;;;35.55;41.66;99251.19;5069655;28;20203;-71
2023/06/23 11:37:17;;;;;;;7.85;5.88;;;;;;;35.64;42.96;99249.56;5069416;28;20604;-71